createdAt,value
2023-01-07T00:01:48.502Z,20.09
2023-01-07T00:07:11.878Z,20.06
2023-01-07T00:12:33.805Z,20.02
2023-01-07T00:17:55.575Z,19.99
2023-01-07T00:23:17.314Z,19.96
2023-01-07T00:28:41.599Z,19.94
2023-01-07T00:34:03.968Z,19.91
2023-01-07T00:39:25.729Z,19.87
2023-01-07T00:44:47.443Z,19.84
2023-01-07T00:50:09.237Z,19.84
2023-01-07T00:55:31.930Z,19.80
2023-01-07T01:00:58.678Z,19.79
2023-01-07T01:06:20.535Z,19.76
2023-01-07T01:11:42.359Z,19.75
2023-01-07T01:17:04.161Z,19.70
2023-01-07T01:22:25.936Z,19.68
2023-01-07T01:27:47.752Z,19.66
2023-01-07T01:33:09.595Z,19.64
2023-01-07T01:38:31.348Z,19.64
2023-01-07T01:43:53.141Z,19.60
2023-01-07T01:49:23.502Z,19.60
2023-01-07T01:54:52.634Z,19.56
2023-01-07T02:00:16.682Z,19.54
2023-01-07T02:05:41.692Z,19.53
2023-01-07T02:11:16.915Z,19.51
2023-01-07T02:16:53.339Z,19.49
2023-01-07T02:22:44.199Z,19.46
2023-01-07T02:28:18.118Z,19.46
2023-01-07T02:33:51.030Z,19.44
2023-01-07T02:39:40.950Z,19.42
2023-01-07T02:45:21.895Z,19.42
2023-01-07T02:50:43.755Z,19.37
2023-01-07T02:56:08.355Z,19.37
2023-01-07T03:01:30.305Z,19.35
2023-01-07T03:07:19.673Z,19.36
2023-01-07T03:12:52.193Z,19.32
2023-01-07T03:18:28.907Z,19.33
2023-01-07T03:23:57.156Z,19.31
2023-01-07T03:29:20.987Z,19.29
2023-01-07T03:34:44.078Z,19.27
2023-01-07T03:40:10.105Z,19.25
2023-01-07T03:45:31.927Z,19.24
2023-01-07T03:50:53.663Z,19.24
2023-01-07T03:56:15.401Z,19.23
2023-01-07T04:01:37.347Z,19.21
2023-01-07T04:06:59.191Z,19.20
2023-01-07T04:12:21.028Z,19.19
2023-01-07T04:17:42.848Z,19.17
2023-01-07T04:23:04.571Z,19.16
2023-01-07T04:28:26.337Z,19.15
2023-01-07T04:33:48.182Z,19.14
2023-01-07T04:39:09.913Z,19.13
2023-01-07T04:44:31.656Z,19.12
2023-01-07T04:49:53.354Z,19.12
2023-01-07T04:55:15.182Z,19.10
2023-01-07T05:00:37.452Z,19.08
2023-01-07T05:05:59.236Z,19.07
2023-01-07T05:11:22.054Z,19.07
2023-01-07T05:16:43.899Z,19.07
2023-01-07T05:22:05.702Z,19.06
2023-01-07T05:27:27.432Z,19.04
2023-01-07T05:32:49.229Z,19.03
2023-01-07T05:38:11.095Z,19.02
2023-01-07T05:43:33.067Z,19.01
2023-01-07T05:48:54.837Z,19.00
2023-01-07T05:54:16.668Z,19.00
2023-01-07T05:59:38.663Z,18.99
2023-01-07T06:05:00.495Z,18.97
2023-01-07T06:10:22.594Z,18.97
2023-01-07T06:15:44.355Z,18.96
2023-01-07T06:21:06.214Z,18.95
2023-01-07T06:26:27.960Z,18.92
2023-01-07T06:31:49.849Z,18.93
2023-01-07T06:37:11.728Z,18.90
2023-01-07T06:42:33.449Z,18.93
2023-01-07T06:47:57.542Z,19.16
2023-01-07T06:53:19.603Z,19.56
2023-01-07T06:58:41.343Z,20.01
2023-01-07T07:04:03.401Z,20.30
2023-01-07T07:09:25.119Z,20.45
2023-01-07T07:14:47.229Z,20.50
2023-01-07T07:20:09.529Z,20.46
2023-01-07T07:25:31.274Z,20.41
2023-01-07T07:30:53.010Z,20.34
2023-01-07T07:36:14.860Z,20.24
2023-01-07T07:41:36.558Z,20.17
2023-01-07T07:46:58.309Z,20.06
2023-01-07T07:52:20.046Z,19.96
2023-01-07T07:57:41.855Z,19.88
2023-01-07T08:03:04.304Z,19.80
2023-01-07T08:08:26.046Z,19.74
2023-01-07T08:13:48.015Z,19.65
2023-01-07T08:19:10.918Z,19.58
2023-01-07T08:24:32.711Z,19.53
2023-01-07T08:29:55.432Z,19.51
2023-01-07T08:35:17.541Z,19.51
2023-01-07T08:40:39.340Z,19.54
2023-01-07T08:46:01.062Z,19.61
2023-01-07T08:51:22.854Z,19.65
2023-01-07T08:56:44.617Z,19.65
2023-01-07T09:02:11.025Z,19.66
2023-01-07T09:07:32.820Z,19.68
2023-01-07T09:12:54.566Z,19.68
2023-01-07T09:18:16.323Z,19.73
2023-01-07T09:23:38.080Z,19.76
2023-01-07T09:28:59.757Z,19.81
2023-01-07T09:34:21.683Z,19.85
2023-01-07T09:39:43.411Z,19.83
2023-01-07T09:45:19.307Z,19.86
2023-01-07T09:50:46.634Z,19.86
2023-01-07T09:56:25.577Z,19.87
2023-01-07T10:01:59.819Z,19.89
2023-01-07T10:07:38.492Z,19.87
2023-01-07T10:13:31.927Z,19.84
2023-01-07T10:19:33.097Z,19.80
2023-01-07T10:25:00.532Z,19.73
2023-01-07T10:30:27.111Z,19.69
2023-01-07T10:36:11.140Z,19.65
2023-01-07T10:41:54.534Z,19.62
2023-01-07T10:47:57.482Z,19.59
2023-01-07T10:53:49.724Z,19.58
2023-01-07T10:59:15.761Z,19.55
2023-01-07T11:04:37.446Z,19.50
2023-01-07T11:10:04.435Z,19.50
2023-01-07T11:15:45.429Z,19.55
2023-01-07T11:21:07.303Z,19.59
2023-01-07T11:26:35.003Z,19.71
2023-01-07T11:32:00.755Z,19.80
2023-01-07T11:37:34.358Z,19.89
2023-01-07T11:42:57.768Z,19.94
2023-01-07T11:48:35.229Z,20.03
2023-01-07T11:53:59.275Z,20.07
2023-01-07T11:59:20.926Z,20.11
2023-01-07T12:04:42.775Z,20.12
2023-01-07T12:10:22.646Z,20.11
2023-01-07T12:16:02.232Z,20.04
2023-01-07T12:21:29.386Z,19.92
2023-01-07T12:27:34.960Z,19.83
2023-01-07T12:33:11.656Z,19.73
2023-01-07T12:38:40.700Z,19.60
2023-01-07T12:44:11.571Z,19.55
2023-01-07T12:49:47.132Z,19.47
2023-01-07T12:55:25.791Z,19.36
2023-01-07T13:00:52.801Z,19.25
2023-01-07T13:06:21.134Z,19.19
2023-01-07T13:12:08.402Z,19.25
2023-01-07T13:17:51.812Z,19.40
2023-01-07T13:23:50.780Z,19.59
2023-01-07T13:29:24.445Z,19.77
2023-01-07T13:35:13.870Z,19.89
2023-01-07T13:40:44.340Z,19.99
2023-01-07T13:46:12.710Z,20.05
2023-01-07T13:51:37.984Z,20.07
2023-01-07T13:57:19.899Z,20.07
2023-01-07T14:02:58.207Z,20.08
2023-01-07T14:08:28.626Z,20.11
2023-01-07T14:14:02.012Z,20.17
2023-01-07T14:19:45.748Z,20.24
2023-01-07T14:25:25.425Z,20.31
2023-01-07T14:30:50.090Z,20.33
2023-01-07T14:36:12.998Z,20.33
2023-01-07T14:41:34.784Z,20.33
2023-01-07T14:46:56.771Z,20.33
2023-01-07T14:52:48.747Z,20.34
2023-01-07T14:58:32.447Z,20.28
2023-01-07T15:04:32.554Z,20.23
2023-01-07T15:10:16.722Z,20.18
2023-01-07T15:15:59.775Z,20.16
2023-01-07T15:21:30.342Z,20.16
2023-01-07T15:27:05.670Z,20.17
2023-01-07T15:32:35.335Z,20.21
2023-01-07T15:37:57.390Z,20.24
2023-01-07T15:43:23.981Z,20.31
2023-01-07T15:48:45.706Z,20.36
2023-01-07T15:54:25.741Z,20.41
2023-01-07T15:59:50.730Z,20.43
2023-01-07T16:05:12.767Z,20.43
2023-01-07T16:10:35.902Z,20.42
2023-01-07T16:16:03.459Z,20.37
2023-01-07T16:21:56.634Z,20.31
2023-01-07T16:27:27.595Z,20.21
2023-01-07T16:32:49.717Z,20.12
2023-01-07T16:38:13.372Z,20.09
2023-01-07T16:43:43.538Z,20.07
2023-01-07T16:49:26.583Z,20.05
2023-01-07T16:54:49.773Z,20.01
2023-01-07T17:00:20.320Z,19.97
2023-01-07T17:05:42.185Z,19.92
2023-01-07T17:11:22.666Z,19.90
2023-01-07T17:16:44.514Z,19.86
2023-01-07T17:22:29.558Z,19.83
2023-01-07T17:27:56.653Z,19.79
2023-01-07T17:33:20.700Z,19.76
2023-01-07T17:38:42.501Z,19.72
2023-01-07T17:44:06.615Z,19.70
2023-01-07T17:49:28.325Z,19.65
2023-01-07T17:54:50.252Z,19.63
2023-01-07T18:00:17.952Z,19.72
2023-01-07T18:05:41.392Z,19.84
2023-01-07T18:11:22.112Z,20.10
2023-01-07T18:16:44.348Z,20.44
2023-01-07T18:22:06.308Z,20.73
2023-01-07T18:27:28.085Z,21.04
2023-01-07T18:32:53.205Z,21.35
2023-01-07T18:38:16.766Z,21.63
2023-01-07T18:43:38.504Z,21.74
2023-01-07T18:49:00.545Z,21.80
2023-01-07T18:54:22.300Z,21.78
2023-01-07T18:59:44.427Z,21.71
2023-01-07T19:05:07.194Z,21.64
2023-01-07T19:10:28.879Z,21.50
2023-01-07T19:15:50.609Z,21.39
2023-01-07T19:21:12.736Z,21.30
2023-01-07T19:26:35.344Z,21.17
2023-01-07T19:31:57.157Z,21.08
2023-01-07T19:37:19.487Z,21.05
2023-01-07T19:42:41.354Z,21.11
2023-01-07T19:48:03.117Z,21.31
2023-01-07T19:53:25.732Z,21.59
2023-01-07T19:58:47.451Z,21.87
2023-01-07T20:04:09.246Z,22.09
2023-01-07T20:09:31.064Z,22.26
2023-01-07T20:14:52.744Z,22.28
2023-01-07T20:20:14.751Z,22.28
2023-01-07T20:25:36.487Z,22.21
2023-01-07T20:30:58.206Z,22.10
2023-01-07T20:36:24.076Z,22.03
2023-01-07T20:41:46.037Z,22.02
2023-01-07T20:47:07.737Z,22.12
2023-01-07T20:52:29.420Z,22.21
2023-01-07T20:57:51.144Z,22.29
2023-01-07T21:03:12.903Z,22.43
2023-01-07T21:08:34.927Z,22.52
2023-01-07T21:13:56.698Z,22.50
2023-01-07T21:19:18.425Z,22.41
2023-01-07T21:24:40.145Z,22.31
2023-01-07T21:30:04.945Z,22.19
2023-01-07T21:35:27.627Z,22.06
2023-01-07T21:40:49.644Z,21.93
2023-01-07T21:46:11.911Z,21.79
2023-01-07T21:51:34.565Z,21.66
2023-01-07T21:56:56.254Z,21.52
2023-01-07T22:02:18.960Z,21.41
2023-01-07T22:07:40.757Z,21.29
2023-01-07T22:13:02.446Z,21.19
2023-01-07T22:18:24.225Z,21.08
2023-01-07T22:23:47.283Z,20.99
2023-01-07T22:29:09.061Z,20.88
2023-01-07T22:34:30.795Z,20.79
2023-01-07T22:39:58.595Z,20.73
2023-01-07T22:45:39.342Z,20.68
2023-01-07T22:51:06.793Z,20.63
2023-01-07T22:56:28.984Z,20.57
2023-01-07T23:01:50.663Z,20.51
2023-01-07T23:07:12.357Z,20.48
2023-01-07T23:12:34.104Z,20.45
2023-01-07T23:17:56.158Z,20.38
2023-01-07T23:23:17.917Z,20.34
2023-01-07T23:28:39.781Z,20.29
2023-01-07T23:34:01.785Z,20.24
2023-01-07T23:39:23.597Z,20.22
2023-01-07T23:44:45.404Z,20.18
2023-01-07T23:50:07.770Z,20.14
2023-01-07T23:55:29.682Z,20.12
